Time;durP1;ratioP1;P1;durP2;ratioP2;P2;SDS_P1;SDS_P2;PMS_P1;PMS_P2;Temp;Humidity;BMP_temperature;BMP_pressure;BME280_temperature;BME280_humidity;BME280_pressure;Samples;Min_cycle;Max_cycle;Signal;HPM_P1;HPM_P2
2024/01/24 00:02:14;;;;;;;8.52;3.30;;;5.80;99.90;;;;;;5038257;28;20093;-46
2024/01/24 00:04:41;;;;;;;12.50;3.22;;;5.80;99.90;;;;;;5029613;28;20104;-51
2024/01/24 00:07:08;;;;;;;11.90;3.40;;;5.80;99.90;;;;;;5034482;28;20059;-45
2024/01/24 00:09:35;;;;;;;10.75;2.95;;;5.80;99.90;;;;;;5032396;28;20088;-43
2024/01/24 00:12:02;;;;;;;13.65;3.00;;;5.80;99.90;;;;;;5031320;28;20124;-47
2024/01/24 00:14:29;;;;;;;7.65;2.88;;;5.80;99.90;;;;;;5032079;28;20518;-45
2024/01/24 00:16:56;;;;;;;12.50;3.33;;;5.80;99.90;;;;;;5034428;28;20473;-45
2024/01/24 00:19:23;;;;;;;13.38;3.40;;;5.80;99.90;;;;;;5031263;28;20047;-43
2024/01/24 00:21:50;;;;;;;13.70;3.38;;;5.80;99.90;;;;;;5033787;28;20041;-44
2024/01/24 00:24:17;;;;;;;13.05;3.08;;;5.90;99.90;;;;;;5032359;28;20283;-44
2024/01/24 00:26:44;;;;;;;8.77;2.63;;;5.90;99.90;;;;;;5030323;28;20052;-49
2024/01/24 00:29:11;;;;;;;16.08;3.35;;;6.00;99.90;;;;;;5035606;28;20045;-46
2024/01/24 00:31:38;;;;;;;10.27;3.30;;;6.00;99.90;;;;;;5031312;28;20077;-47
2024/01/24 00:34:05;;;;;;;12.70;3.45;;;6.00;99.90;;;;;;5032513;28;20141;-45
2024/01/24 00:36:32;;;;;;;9.27;2.75;;;6.00;99.90;;;;;;5032927;28;20498;-47
2024/01/24 00:38:59;;;;;;;7.22;3.13;;;6.10;99.90;;;;;;5031223;28;20121;-45
2024/01/24 00:41:26;;;;;;;8.18;3.00;;;6.10;99.90;;;;;;5032231;28;20076;-47
2024/01/24 00:43:54;;;;;;;9.77;2.75;;;6.10;99.90;;;;;;5027895;28;20030;-46
2024/01/24 00:46:21;;;;;;;7.32;3.28;;;6.10;99.90;;;;;;5034419;28;20053;-47
2024/01/24 00:48:47;;;;;;;11.32;3.55;;;6.20;99.90;;;;;;5032911;28;20550;-48
2024/01/24 00:51:15;;;;;;;9.48;2.92;;;6.20;99.90;;;;;;5036525;28;20041;-48
2024/01/24 00:53:48;;;;;;;11.23;3.03;;;6.20;99.90;;;;;;5034303;28;20096;-43
2024/01/24 00:56:15;;;;;;;11.02;2.80;;;6.20;99.90;;;;;;5043566;28;20075;-53
2024/01/24 00:58:42;;;;;;;17.27;3.67;;;6.20;99.90;;;;;;5048508;28;20069;-47
2024/01/24 01:01:10;;;;;;;15.93;3.30;;;6.20;99.90;;;;;;5042769;28;20056;-47
2024/01/24 01:03:38;;;;;;;8.73;3.47;;;6.20;99.90;;;;;;5033137;28;20121;-46
2024/01/24 01:06:06;;;;;;;11.70;3.22;;;6.20;99.90;;;;;;5035075;28;20049;-45
2024/01/24 01:08:33;;;;;;;11.75;2.90;;;6.20;99.90;;;;;;5036293;28;20042;-43
2024/01/24 01:11:00;;;;;;;9.18;3.00;;;6.30;99.90;;;;;;5035632;28;20139;-45
2024/01/24 01:13:26;;;;;;;11.77;3.08;;;6.20;99.90;;;;;;5034550;28;20124;-46
2024/01/24 01:15:53;;;;;;;9.48;2.30;;;6.20;99.90;;;;;;5034073;28;20110;-52
2024/01/24 01:18:20;;;;;;;9.50;2.65;;;6.30;99.90;;;;;;5033084;28;20072;-46
2024/01/24 01:20:47;;;;;;;8.10;2.65;;;6.30;99.90;;;;;;5034192;28;20710;-46
2024/01/24 01:23:14;;;;;;;7.95;2.80;;;6.30;99.90;;;;;;5040184;28;20064;-48
2024/01/24 01:25:41;;;;;;;11.43;2.83;;;6.30;99.90;;;;;;5038751;28;20506;-45
2024/01/24 01:28:08;;;;;;;9.45;2.70;;;6.40;99.90;;;;;;5034540;28;20077;-48
2024/01/24 01:30:35;;;;;;;9.75;2.38;;;6.40;99.90;;;;;;5033822;28;20558;-48
2024/01/24 01:33:02;;;;;;;8.50;2.47;;;6.40;99.90;;;;;;5030670;28;20465;-47
2024/01/24 01:35:29;;;;;;;10.35;2.70;;;6.40;99.90;;;;;;5034083;28;20041;-43
2024/01/24 01:37:56;;;;;;;11.25;3.38;;;6.50;99.90;;;;;;5008973;28;20136;-45
2024/01/24 01:40:23;;;;;;;11.27;2.50;;;6.50;99.90;;;;;;5031433;28;20049;-46
2024/01/24 01:42:50;;;;;;;9.02;2.83;;;6.40;99.90;;;;;;5040079;28;20045;-51
2024/01/24 01:45:18;;;;;;;13.43;2.95;;;6.40;99.90;;;;;;5042533;28;20111;-45
2024/01/24 01:47:47;;;;;;;10.07;2.60;;;6.40;99.90;;;;;;5044125;28;20050;-46
2024/01/24 01:50:15;;;;;;;7.07;2.50;;;6.40;99.90;;;;;;5045575;28;20046;-47
2024/01/24 01:52:42;;;;;;;9.27;2.70;;;6.50;99.90;;;;;;5031850;28;20117;-45
2024/01/24 01:55:11;;;;;;;7.85;2.50;;;6.60;99.90;;;;;;5034832;28;20429;-47
2024/01/24 01:57:41;;;;;;;8.10;2.65;;;6.60;99.90;;;;;;5032038;28;20140;-50
2024/01/24 02:00:10;;;;;;;8.43;2.97;;;6.60;99.90;;;;;;5031150;28;20065;-46
2024/01/24 02:02:37;;;;;;;9.65;2.30;;;6.60;99.90;;;;;;5031878;28;20037;-44
2024/01/24 02:05:05;;;;;;;8.13;2.50;;;6.60;99.90;;;;;;5033850;28;20056;-43
2024/01/24 02:07:32;;;;;;;6.15;2.13;;;6.60;99.90;;;;;;5035649;28;20077;-42
2024/01/24 02:09:59;;;;;;;9.02;2.47;;;6.60;99.90;;;;;;5032353;28;20511;-46
2024/01/24 02:12:26;;;;;;;7.55;3.20;;;6.70;99.90;;;;;;5033960;28;20056;-45
2024/01/24 02:14:53;;;;;;;6.97;2.22;;;6.70;99.90;;;;;;5032391;28;20084;-51
2024/01/24 02:17:20;;;;;;;8.43;2.60;;;6.70;99.90;;;;;;5031647;28;20045;-42
2024/01/24 02:19:47;;;;;;;6.15;2.15;;;6.80;99.90;;;;;;5028081;28;20211;-44
2024/01/24 02:22:14;;;;;;;6.45;2.40;;;6.80;99.90;;;;;;5026061;28;20076;-43
2024/01/24 02:24:41;;;;;;;7.47;2.20;;;6.80;99.90;;;;;;5030658;28;20520;-47
2024/01/24 02:27:08;;;;;;;11.18;3.45;;;6.80;99.90;;;;;;5033411;28;20092;-46
2024/01/24 02:29:36;;;;;;;8.00;2.35;;;6.90;99.90;;;;;;5028807;28;20045;-50
2024/01/24 02:32:03;;;;;;;7.28;2.55;;;6.90;99.90;;;;;;5035864;28;20089;-46
2024/01/24 02:34:30;;;;;;;7.82;2.50;;;7.00;99.90;;;;;;5036364;28;20053;-46
2024/01/24 02:36:57;;;;;;;10.90;2.42;;;7.00;99.90;;;;;;5032673;28;20045;-44
2024/01/24 02:39:24;;;;;;;8.60;2.25;;;7.10;99.90;;;;;;5032485;28;20041;-46
2024/01/24 02:41:52;;;;;;;9.82;2.10;;;7.10;99.90;;;;;;5031619;28;20037;-46
2024/01/24 02:44:19;;;;;;;10.68;2.28;;;7.20;99.90;;;;;;5031040;28;20048;-42
2024/01/24 02:46:46;;;;;;;8.02;2.47;;;7.20;99.90;;;;;;5032643;28;20092;-43
2024/01/24 02:49:13;;;;;;;7.10;2.70;;;7.20;99.90;;;;;;5036275;28;20064;-45
2024/01/24 02:51:39;;;;;;;11.90;3.63;;;7.30;99.90;;;;;;5032399;28;20048;-47
2024/01/24 02:54:06;;;;;;;6.72;2.53;;;7.20;99.90;;;;;;5031601;28;20049;-47
2024/01/24 02:56:35;;;;;;;8.25;2.58;;;7.30;99.90;;;;;;5034211;28;20511;-46
2024/01/24 02:59:02;;;;;;;6.85;2.40;;;7.30;99.90;;;;;;5031594;28;20132;-45
2024/01/24 03:01:29;;;;;;;8.65;2.60;;;7.20;99.90;;;;;;5031374;28;20090;-46
2024/01/24 03:03:56;;;;;;;6.45;2.28;;;7.30;99.90;;;;;;5030878;28;20046;-45
2024/01/24 03:06:23;;;;;;;7.30;2.30;;;7.40;99.90;;;;;;5028275;28;20063;-45
2024/01/24 03:08:53;;;;;;;8.70;2.85;;;7.40;99.90;;;;;;5029981;28;20126;-43
2024/01/24 03:11:20;;;;;;;6.40;2.00;;;7.50;99.90;;;;;;5033511;28;20049;-43
2024/01/24 03:13:47;;;;;;;6.68;1.90;;;7.50;99.90;;;;;;5031267;28;20045;-45
2024/01/24 03:16:14;;;;;;;6.80;2.13;;;7.60;99.90;;;;;;5032684;28;20118;-44
2024/01/24 03:18:41;;;;;;;5.75;1.80;;;7.80;99.90;;;;;;5029723;28;20137;-46
2024/01/24 03:21:13;;;;;;;8.18;1.92;;;8.00;99.90;;;;;;5032267;28;20120;-45
2024/01/24 03:23:40;;;;;;;6.43;1.75;;;8.30;99.90;;;;;;5028244;28;20291;-44
2024/01/24 03:26:07;;;;;;;11.35;1.88;;;8.40;99.90;;;;;;5028985;28;20597;-44
2024/01/24 03:28:34;;;;;;;5.82;1.63;;;8.50;99.90;;;;;;5027478;28;20554;-45
2024/01/24 03:31:02;;;;;;;8.13;2.08;;;8.80;99.90;;;;;;5030444;28;20049;-48
2024/01/24 03:33:29;;;;;;;8.00;1.65;;;8.90;99.90;;;;;;5031792;28;20048;-44
2024/01/24 03:35:56;;;;;;;4.95;1.45;;;9.00;99.90;;;;;;5032141;28;20123;-45
2024/01/24 03:38:23;;;;;;;6.18;1.50;;;9.10;99.90;;;;;;5029959;28;20075;-46
2024/01/24 03:40:50;;;;;;;5.90;1.38;;;9.20;99.90;;;;;;5026438;28;20605;-46
2024/01/24 03:43:17;;;;;;;7.05;1.80;;;9.30;99.90;;;;;;5031443;28;20079;-46
2024/01/24 03:45:44;;;;;;;8.95;1.63;;;9.40;99.90;;;;;;5029253;28;20128;-46
2024/01/24 03:48:11;;;;;;;6.82;1.77;;;9.50;99.90;;;;;;5032726;28;20574;-45
2024/01/24 03:50:38;;;;;;;4.75;1.83;;;9.60;99.90;;;;;;5030237;28;20050;-46
2024/01/24 03:53:05;;;;;;;5.78;1.60;;;9.70;99.90;;;;;;5031444;28;20099;-49
2024/01/24 03:55:32;;;;;;;9.50;2.15;;;9.60;99.90;;;;;;5030596;28;20639;-43
2024/01/24 03:57:59;;;;;;;4.50;1.48;;;9.70;99.90;;;;;;5028358;28;20075;-46
2024/01/24 04:00:27;;;;;;;3.33;1.52;;;9.70;99.90;;;;;;5029599;28;20051;-44
2024/01/24 04:02:54;;;;;;;5.22;2.42;;;9.60;99.90;;;;;;5028139;28;20502;-50
2024/01/24 04:05:21;;;;;;;5.57;1.90;;;9.60;99.90;;;;;;5029054;28;20070;-48
2024/01/24 04:07:49;;;;;;;5.10;1.70;;;9.70;99.90;;;;;;5028547;28;20045;-45
2024/01/24 04:10:16;;;;;;;4.63;1.65;;;9.70;99.90;;;;;;5032164;28;20041;-44
2024/01/24 04:12:43;;;;;;;7.07;1.88;;;9.70;99.90;;;;;;5028681;28;20137;-46
2024/01/24 04:15:10;;;;;;;5.95;1.90;;;9.80;99.90;;;;;;5033472;28;20049;-45
2024/01/24 04:17:37;;;;;;;4.82;1.63;;;9.70;99.90;;;;;;5028698;28;20037;-43
2024/01/24 04:20:05;;;;;;;7.00;1.95;;;9.70;99.90;;;;;;5030483;28;20491;-47
2024/01/24 04:22:32;;;;;;;3.80;1.75;;;9.70;99.90;;;;;;5030214;28;20046;-43
2024/01/24 04:25:00;;;;;;;7.30;1.80;;;9.80;99.90;;;;;;5034452;28;20352;-47
2024/01/24 04:27:27;;;;;;;7.13;2.17;;;9.90;99.90;;;;;;5033735;28;20049;-44
2024/01/24 04:29:54;;;;;;;7.22;2.00;;;9.90;99.90;;;;;;5032646;28;20176;-44
2024/01/24 04:32:21;;;;;;;6.28;1.73;;;10.00;99.90;;;;;;5036640;28;20452;-45
2024/01/24 04:34:49;;;;;;;4.97;1.38;;;10.20;99.90;;;;;;5033313;28;20084;-46
2024/01/24 04:37:16;;;;;;;4.35;1.80;;;10.20;99.90;;;;;;5032099;28;20040;-47
2024/01/24 04:39:44;;;;;;;6.60;1.63;;;10.30;99.90;;;;;;5033624;28;20046;-48
2024/01/24 04:42:10;;;;;;;7.15;1.83;;;10.30;99.90;;;;;;5033366;28;20049;-47
2024/01/24 04:44:43;;;;;;;5.18;1.90;;;10.40;99.90;;;;;;5032629;28;20152;-48
2024/01/24 04:47:13;;;;;;;4.63;1.75;;;10.40;99.90;;;;;;5033715;28;20045;-43
2024/01/24 04:49:40;;;;;;;6.25;1.80;;;10.40;99.90;;;;;;5029983;28;20580;-47
2024/01/24 04:52:13;;;;;;;6.35;1.90;;;10.40;99.90;;;;;;5034003;28;20049;-43
2024/01/24 04:54:44;;;;;;;5.47;1.70;;;10.40;99.90;;;;;;5040912;28;20071;-44
2024/01/24 04:57:11;;;;;;;7.47;2.05;;;10.40;99.90;;;;;;5039194;28;20053;-51
2024/01/24 04:59:40;;;;;;;5.03;1.80;;;10.50;99.90;;;;;;5033606;28;20041;-50
2024/01/24 05:02:19;;;;;;;8.40;1.70;;;10.40;99.90;;;;;;5036460;28;20083;-47
2024/01/24 05:04:47;;;;;;;6.50;1.67;;;10.50;99.90;;;;;;5031808;28;20034;-44
2024/01/24 05:07:14;;;;;;;7.97;2.05;;;10.50;99.90;;;;;;5032559;28;20358;-46
2024/01/24 05:09:41;;;;;;;7.13;1.88;;;10.40;99.90;;;;;;5032522;28;20045;-48
2024/01/24 05:12:09;;;;;;;6.75;2.00;;;10.40;99.90;;;;;;5033984;28;20590;-49
2024/01/24 05:14:36;;;;;;;4.53;1.63;;;10.50;99.90;;;;;;5031970;28;20049;-49
2024/01/24 05:17:03;;;;;;;9.02;2.53;;;10.50;99.90;;;;;;5033639;28;20051;-46
2024/01/24 05:19:30;;;;;;;6.20;1.98;;;10.50;99.90;;;;;;5031177;28;20104;-44
2024/01/24 05:21:57;;;;;;;8.15;2.22;;;10.60;99.90;;;;;;5026128;28;20096;-50
2024/01/24 05:24:24;;;;;;;4.20;1.80;;;10.60;99.90;;;;;;5034178;28;20037;-49
2024/01/24 05:26:51;;;;;;;4.72;1.70;;;10.60;99.90;;;;;;5031861;28;20541;-47
2024/01/24 05:29:19;;;;;;;6.25;1.73;;;10.50;99.90;;;;;;5036818;28;20051;-44
2024/01/24 05:31:46;;;;;;;5.25;2.17;;;10.60;99.90;;;;;;5033433;28;20077;-47
2024/01/24 05:34:13;;;;;;;5.70;1.98;;;10.60;99.90;;;;;;5035972;28;20053;-49
2024/01/24 05:36:40;;;;;;;4.82;1.88;;;10.50;99.90;;;;;;5036047;28;20545;-48
2024/01/24 05:39:07;;;;;;;4.95;1.70;;;10.60;99.90;;;;;;5038482;28;20073;-51
2024/01/24 05:41:35;;;;;;;3.10;1.65;;;10.60;99.90;;;;;;5029103;28;20114;-43
2024/01/24 05:44:03;;;;;;;4.55;1.85;;;10.60;99.90;;;;;;5034115;28;20052;-44
2024/01/24 05:46:30;;;;;;;6.00;1.98;;;10.60;99.90;;;;;;5034076;28;20067;-44
2024/01/24 05:49:00;;;;;;;4.38;1.83;;;10.60;99.90;;;;;;5016443;28;20086;-49
2024/01/24 05:51:27;;;;;;;4.55;1.75;;;10.60;99.90;;;;;;5034233;28;20037;-44
2024/01/24 05:53:54;;;;;;;4.00;1.48;;;10.60;99.90;;;;;;5031333;28;20470;-44
2024/01/24 05:56:21;;;;;;;9.25;2.50;;;10.60;99.90;;;;;;5036035;28;20043;-45
2024/01/24 05:58:48;;;;;;;4.53;1.45;;;10.60;99.90;;;;;;5038647;28;20549;-47
2024/01/24 06:01:15;;;;;;;5.15;1.88;;;10.50;99.90;;;;;;5036506;28;20033;-46
2024/01/24 06:03:42;;;;;;;4.53;1.42;;;10.60;99.90;;;;;;5033652;28;20042;-44
2024/01/24 06:06:09;;;;;;;4.90;1.70;;;10.50;99.90;;;;;;5035796;28;20053;-44
2024/01/24 06:08:37;;;;;;;7.03;1.85;;;10.60;99.90;;;;;;5036609;28;20533;-46
2024/01/24 06:11:04;;;;;;;7.88;1.90;;;10.60;99.90;;;;;;5034869;28;20057;-44
2024/01/24 06:13:31;;;;;;;13.02;2.20;;;10.60;99.90;;;;;;5038282;28;20132;-44
2024/01/24 06:15:58;;;;;;;4.13;1.60;;;10.50;99.90;;;;;;5040706;28;20561;-49
2024/01/24 06:18:25;;;;;;;4.22;1.50;;;10.60;99.90;;;;;;5040666;28;20048;-48
2024/01/24 06:20:52;;;;;;;5.32;1.67;;;10.60;99.90;;;;;;5036735;28;20034;-53
2024/01/24 06:23:19;;;;;;;5.70;1.80;;;10.60;99.90;;;;;;5033196;28;20052;-48
2024/01/24 06:25:46;;;;;;;5.18;2.20;;;10.60;99.90;;;;;;5032660;28;20045;-50
2024/01/24 06:28:13;;;;;;;7.40;1.88;;;10.60;99.90;;;;;;5032356;28;20498;-46
2024/01/24 06:30:41;;;;;;;4.53;1.50;;;10.70;99.90;;;;;;5033143;28;20072;-47
2024/01/24 06:33:08;;;;;;;4.80;1.58;;;10.70;99.90;;;;;;5032217;28;20393;-46
2024/01/24 06:35:35;;;;;;;5.70;2.13;;;10.60;99.90;;;;;;5031494;28;20513;-50
2024/01/24 06:38:02;;;;;;;7.20;1.75;;;10.60;99.90;;;;;;5032727;28;20073;-45
2024/01/24 06:40:29;;;;;;;4.97;2.05;;;10.50;99.90;;;;;;5030291;28;20037;-49
2024/01/24 06:42:56;;;;;;;3.13;1.67;;;10.40;99.90;;;;;;5040146;28;20421;-45
2024/01/24 06:45:24;;;;;;;5.25;1.60;;;10.40;99.90;;;;;;5030200;28;20155;-44
2024/01/24 06:47:50;;;;;;;7.05;2.00;;;10.30;99.90;;;;;;5035685;28;20045;-43
2024/01/24 06:50:18;;;;;;;4.25;1.60;;;10.30;99.90;;;;;;5040291;28;20102;-45
2024/01/24 06:52:45;;;;;;;5.38;2.47;;;10.40;99.90;;;;;;5037667;28;20533;-43
2024/01/24 06:55:13;;;;;;;6.32;1.52;;;10.40;99.90;;;;;;5038638;28;20041;-44
2024/01/24 06:57:40;;;;;;;4.47;1.83;;;10.40;99.90;;;;;;5034746;28;20034;-48
2024/01/24 07:00:08;;;;;;;5.82;1.70;;;10.40;99.90;;;;;;5032887;28;20145;-45
2024/01/24 07:02:36;;;;;;;5.90;1.60;;;10.40;99.90;;;;;;5031295;28;20282;-44
2024/01/24 07:05:03;;;;;;;3.40;1.83;;;10.40;99.90;;;;;;5032518;28;20061;-44
2024/01/24 07:07:32;;;;;;;8.13;2.17;;;10.40;99.90;;;;;;5029224;28;20072;-47
2024/01/24 07:09:59;;;;;;;7.07;1.83;;;10.50;99.90;;;;;;5020996;28;20054;-43
2024/01/24 07:12:26;;;;;;;4.10;1.60;;;10.50;99.90;;;;;;5035639;28;20033;-44
2024/01/24 07:14:53;;;;;;;4.93;1.60;;;10.50;99.90;;;;;;5037221;28;20056;-45
2024/01/24 07:17:20;;;;;;;4.10;1.48;;;10.60;99.90;;;;;;5035028;28;20140;-43
2024/01/24 07:19:47;;;;;;;4.10;1.52;;;10.70;99.90;;;;;;5038101;28;20060;-49
2024/01/24 07:22:15;;;;;;;6.95;1.70;;;10.70;99.90;;;;;;5027930;28;20445;-44
2024/01/24 07:24:44;;;;;;;4.38;1.52;;;10.70;99.90;;;;;;5030325;28;20052;-45
2024/01/24 07:27:12;;;;;;;4.60;1.95;;;10.80;99.90;;;;;;5032194;28;20051;-44
2024/01/24 07:29:39;;;;;;;2.33;1.40;;;10.90;99.90;;;;;;5030695;28;20053;-41
2024/01/24 07:32:06;;;;;;;4.28;1.70;;;10.90;99.90;;;;;;5033876;28;20435;-47
2024/01/24 07:34:33;;;;;;;6.57;1.70;;;10.90;99.90;;;;;;5030334;28;20194;-47
2024/01/24 07:37:00;;;;;;;3.88;1.95;;;10.90;99.90;;;;;;5027590;28;20029;-44
2024/01/24 07:39:28;;;;;;;5.85;1.50;;;11.00;99.90;;;;;;5033429;28;20535;-48
2024/01/24 07:41:55;;;;;;;5.25;1.60;;;11.00;99.90;;;;;;5032625;28;20041;-48
2024/01/24 07:44:23;;;;;;;5.70;1.63;;;11.00;99.90;;;;;;5032359;28;20569;-42
2024/01/24 07:46:51;;;;;;;5.22;1.60;;;11.10;99.90;;;;;;5026973;28;20131;-42
2024/01/24 07:49:18;;;;;;;3.80;1.60;;;11.10;99.90;;;;;;5032492;28;20531;-46
2024/01/24 07:51:48;;;;;;;6.22;1.33;;;11.10;99.90;;;;;;5031353;28;20057;-49
2024/01/24 07:54:18;;;;;;;3.47;1.40;;;11.20;99.90;;;;;;5032761;28;20128;-42
2024/01/24 07:56:45;;;;;;;2.00;1.20;;;11.20;99.90;;;;;;5029688;28;20049;-50
2024/01/24 07:59:16;;;;;;;3.60;1.48;;;11.20;99.90;;;;;;5035805;28;20564;-43
2024/01/24 08:01:46;;;;;;;4.03;1.93;;;11.20;99.90;;;;;;5027027;28;20049;-43
2024/01/24 08:04:14;;;;;;;3.83;1.60;;;11.20;99.90;;;;;;5031941;28;20356;-49
2024/01/24 08:06:41;;;;;;;5.57;1.48;;;11.20;99.90;;;;;;5032787;28;20158;-44
2024/01/24 08:09:09;;;;;;;4.93;2.05;;;11.20;99.90;;;;;;5033427;28;20529;-43
2024/01/24 08:11:39;;;;;;;3.50;1.67;;;11.20;99.90;;;;;;5034996;28;20048;-45
2024/01/24 08:14:06;;;;;;;6.45;1.70;;;11.20;99.90;;;;;;5035077;28;20262;-45
2024/01/24 08:16:33;;;;;;;4.50;1.30;;;11.20;99.90;;;;;;5035220;28;20041;-44
2024/01/24 08:19:01;;;;;;;4.20;1.52;;;11.20;99.90;;;;;;5032148;28;20529;-44
2024/01/24 08:21:28;;;;;;;3.97;1.45;;;11.20;99.90;;;;;;5027752;28;20050;-44
2024/01/24 08:23:55;;;;;;;3.67;1.40;;;11.10;99.90;;;;;;5030741;28;20517;-47
2024/01/24 08:26:23;;;;;;;6.60;1.52;;;11.10;99.90;;;;;;5032205;28;20252;-44
2024/01/24 08:28:52;;;;;;;4.38;1.77;;;11.00;99.90;;;;;;5032255;28;20081;-48
2024/01/24 08:31:19;;;;;;;7.00;1.75;;;11.00;99.90;;;;;;5030319;28;20037;-46
2024/01/24 08:33:46;;;;;;;3.30;1.50;;;11.00;99.90;;;;;;5030376;28;20108;-50
2024/01/24 08:36:18;;;;;;;4.20;1.30;;;11.00;99.90;;;;;;5030851;28;20041;-47
2024/01/24 08:38:46;;;;;;;4.60;1.65;;;11.00;99.90;;;;;;5036520;28;20317;-44
2024/01/24 08:41:13;;;;;;;5.97;1.48;;;11.00;99.90;;;;;;5033456;28;20053;-45
2024/01/24 08:43:40;;;;;;;4.40;1.60;;;11.00;99.90;;;;;;5032602;28;20061;-48
2024/01/24 08:46:07;;;;;;;2.63;1.25;;;11.00;99.90;;;;;;5033005;28;20069;-44
2024/01/24 08:48:34;;;;;;;4.65;1.80;;;11.10;99.90;;;;;;5032758;28;20083;-47
2024/01/24 08:51:01;;;;;;;4.40;1.70;;;11.10;99.90;;;;;;5038667;28;20048;-48
2024/01/24 08:53:28;;;;;;;4.63;1.30;;;11.10;99.90;;;;;;5033786;28;20495;-45
2024/01/24 08:55:55;;;;;;;3.55;1.15;;;11.10;99.90;;;;;;5026739;28;20041;-46
2024/01/24 08:58:22;;;;;;;2.10;1.00;;;11.10;99.90;;;;;;5029839;28;20484;-42
2024/01/24 09:00:50;;;;;;;4.35;1.35;;;11.10;99.90;;;;;;5025329;28;20258;-47
2024/01/24 09:03:18;;;;;;;5.00;1.42;;;11.10;99.90;;;;;;5031551;28;20041;-42
2024/01/24 09:05:46;;;;;;;4.40;1.42;;;11.10;99.90;;;;;;5028662;28;20045;-45
2024/01/24 09:08:13;;;;;;;3.65;1.40;;;11.10;99.90;;;;;;5032389;28;20101;-50
2024/01/24 09:10:41;;;;;;;4.35;1.20;;;11.10;99.90;;;;;;5034128;28;20045;-43
2024/01/24 09:13:08;;;;;;;2.95;1.30;;;11.10;99.90;;;;;;5033497;28;20112;-49
2024/01/24 09:15:35;;;;;;;4.40;1.40;;;11.20;99.90;;;;;;5033788;28;20095;-48
2024/01/24 09:18:02;;;;;;;4.30;1.30;;;11.20;99.90;;;;;;5033634;28;20123;-48
2024/01/24 09:20:30;;;;;;;3.45;1.30;;;11.20;99.90;;;;;;5036440;28;20044;-42
2024/01/24 09:22:57;;;;;;;3.03;1.20;;;11.30;99.90;;;;;;5032527;28;20498;-43
2024/01/24 09:25:25;;;;;;;3.10;1.30;;;11.40;99.90;;;;;;5036463;28;20099;-48
2024/01/24 09:27:53;;;;;;;1.85;1.00;;;11.50;99.90;;;;;;5035144;28;20042;-50
2024/01/24 09:30:21;;;;;;;2.60;1.00;;;11.60;99.90;;;;;;5040606;28;20049;-43
2024/01/24 09:32:48;;;;;;;4.00;1.30;;;11.60;99.90;;;;;;5037858;28;20374;-51
2024/01/24 09:35:16;;;;;;;1.40;1.00;;;11.70;99.90;;;;;;5036495;28;20049;-46
2024/01/24 09:37:44;;;;;;;2.75;1.10;;;11.80;99.90;;;;;;5033306;28;20041;-48
2024/01/24 09:40:14;;;;;;;3.72;1.10;;;11.90;99.90;;;;;;5039294;28;20121;-43
2024/01/24 09:42:43;;;;;;;1.63;0.90;;;12.00;99.90;;;;;;5033941;28;20049;-42
2024/01/24 09:45:11;;;;;;;1.73;0.80;;;12.10;99.90;;;;;;5033882;28;20085;-48
2024/01/24 09:47:39;;;;;;;4.03;0.80;;;12.00;99.90;;;;;;5030443;28;20045;-45
2024/01/24 09:50:09;;;;;;;2.08;0.80;;;11.80;99.90;;;;;;5037316;28;20076;-45
2024/01/24 09:52:36;;;;;;;6.03;0.90;;;11.60;99.90;;;;;;5033787;28;20045;-46
2024/01/24 09:55:04;;;;;;;2.75;1.00;;;11.50;99.90;;;;;;5032838;28;20069;-47
2024/01/24 09:57:33;;;;;;;1.48;0.80;;;11.40;99.90;;;;;;5032561;28;20041;-41
2024/01/24 10:00:00;;;;;;;2.65;0.75;;;11.20;99.90;;;;;;5035907;28;20061;-48
2024/01/24 10:02:30;;;;;;;1.85;0.82;;;11.20;99.90;;;;;;5038478;28;20548;-45
2024/01/24 10:04:59;;;;;;;2.47;0.73;;;11.10;99.90;;;;;;5033926;28;20940;-46
2024/01/24 10:07:27;;;;;;;2.30;0.88;;;11.00;99.90;;;;;;5035014;28;20067;-45
2024/01/24 10:10:09;;;;;;;1.65;1.00;;;11.10;99.90;;;;;;5031724;28;20076;-43
2024/01/24 10:12:36;;;;;;;2.00;0.80;;;11.00;99.90;;;;;;5032606;28;20130;-45
2024/01/24 10:15:04;;;;;;;4.20;0.93;;;11.00;99.90;;;;;;5033635;28;20103;-43
2024/01/24 10:17:31;;;;;;;1.98;0.82;;;11.00;99.90;;;;;;5034118;28;20041;-44
2024/01/24 10:19:58;;;;;;;1.52;0.80;;;11.10;99.90;;;;;;5030344;28;20125;-44
2024/01/24 10:22:26;;;;;;;2.08;0.95;;;11.20;99.90;;;;;;5035199;28;20401;-44
2024/01/24 10:24:54;;;;;;;3.28;1.00;;;11.40;99.90;;;;;;5030142;28;20120;-44
2024/01/24 10:27:22;;;;;;;2.00;0.80;;;11.60;99.90;;;;;;5033314;28;20127;-42
2024/01/24 10:29:51;;;;;;;1.95;0.90;;;11.80;99.90;;;;;;5032430;28;20328;-51
2024/01/24 10:32:17;;;;;;;1.75;0.80;;;12.00;99.90;;;;;;5034784;28;20481;-45
2024/01/24 10:34:44;;;;;;;2.00;0.80;;;12.30;99.90;;;;;;5036838;28;20487;-44
2024/01/24 10:37:12;;;;;;;1.33;0.80;;;12.40;99.90;;;;;;5035877;28;20038;-48
2024/01/24 10:39:39;;;;;;;1.38;0.90;;;12.50;99.90;;;;;;5032509;28;20618;-43
2024/01/24 10:42:07;;;;;;;2.08;1.00;;;12.60;99.90;;;;;;5036222;28;20041;-40
2024/01/24 10:44:44;;;;;;;3.90;1.00;;;12.80;99.90;;;;;;5029955;28;20497;-46
2024/01/24 10:47:11;;;;;;;3.80;0.80;;;12.90;99.90;;;;;;5032163;28;20093;-46
2024/01/24 10:49:39;;;;;;;2.28;1.00;;;13.00;99.90;;;;;;5031963;28;20053;-43
2024/01/24 10:52:07;;;;;;;1.40;0.85;;;13.00;99.90;;;;;;5032131;28;20552;-40
2024/01/24 10:54:37;;;;;;;3.03;1.00;;;13.20;99.90;;;;;;5031053;28;20045;-44
2024/01/24 10:57:06;;;;;;;2.17;0.90;;;13.40;99.90;;;;;;5028114;28;20033;-47
2024/01/24 10:59:37;;;;;;;2.53;1.02;;;13.80;99.90;;;;;;5032004;28;20557;-45
2024/01/24 11:02:08;;;;;;;2.33;0.80;;;14.10;99.90;;;;;;5030626;28;20517;-44
2024/01/24 11:04:37;;;;;;;3.50;1.10;;;14.20;99.90;;;;;;5029887;28;20041;-48
2024/01/24 11:07:12;;;;;;;3.88;1.13;;;14.40;99.90;;;;;;5032591;28;20054;-44
2024/01/24 11:10:09;;;;;;;3.33;1.10;;;14.30;99.90;;;;;;5030623;28;20073;-50
2024/01/24 11:12:36;;;;;;;1.80;1.10;;;14.10;99.90;;;;;;5034456;28;20072;-44
2024/01/24 11:15:05;;;;;;;2.10;1.35;;;14.10;99.90;;;;;;5028721;28;20418;-46
2024/01/24 11:17:33;;;;;;;3.30;1.20;;;14.40;99.90;;;;;;5031928;28;20474;-46
2024/01/24 11:20:07;;;;;;;2.08;1.20;;;14.40;99.90;;;;;;5030611;28;20072;-42
2024/01/24 11:22:34;;;;;;;3.45;1.52;;;14.50;99.90;;;;;;5026509;28;20053;-46
2024/01/24 11:25:04;;;;;;;2.63;1.23;;;14.00;99.90;;;;;;5028342;28;20034;-50
2024/01/24 11:27:36;;;;;;;2.15;1.13;;;14.00;99.90;;;;;;5029433;28;20127;-48
2024/01/24 11:30:06;;;;;;;2.97;1.10;;;13.70;99.90;;;;;;5034081;28;20045;-42
2024/01/24 11:32:55;;;;;;;1.67;0.98;;;13.60;99.90;;;;;;5037002;28;20145;-46
2024/01/24 11:35:36;;;;;;;1.45;1.30;;;13.70;99.90;;;;;;5036873;28;20127;-47
2024/01/24 11:38:27;;;;;;;1.77;1.10;;;13.60;99.90;;;;;;5037307;28;20529;-44
2024/01/24 11:41:02;;;;;;;2.03;1.20;;;13.50;99.90;;;;;;5020611;28;20391;-43
2024/01/24 11:43:34;;;;;;;2.05;1.25;;;13.40;99.90;;;;;;5036252;28;20115;-51
2024/01/24 11:46:07;;;;;;;2.33;1.30;;;13.50;99.90;;;;;;5036556;28;20045;-46
2024/01/24 11:48:36;;;;;;;4.40;1.20;;;13.40;99.90;;;;;;5036618;28;20052;-43
2024/01/24 11:51:09;;;;;;;4.22;1.48;;;13.40;99.90;;;;;;5041865;28;20045;-48
2024/01/24 11:53:36;;;;;;;3.55;1.33;;;13.40;99.90;;;;;;5036547;28;20178;-44
2024/01/24 11:56:05;;;;;;;3.25;1.20;;;13.50;99.90;;;;;;5035525;28;20099;-46
2024/01/24 11:58:33;;;;;;;2.75;1.40;;;14.00;99.90;;;;;;5037092;28;20037;-50
2024/01/24 12:01:01;;;;;;;2.83;1.42;;;14.50;99.90;;;;;;5033941;28;20041;-46
2024/01/24 12:03:29;;;;;;;2.80;1.30;;;15.00;99.90;;;;;;5038972;28;20037;-44
2024/01/24 12:06:01;;;;;;;2.22;1.40;;;15.10;99.90;;;;;;5032327;28;20407;-47
2024/01/24 12:08:28;;;;;;;6.03;1.83;;;15.30;99.90;;;;;;5031070;28;20053;-45
2024/01/24 12:10:56;;;;;;;2.60;1.30;;;15.50;99.90;;;;;;5032998;28;20504;-45
2024/01/24 12:13:26;;;;;;;5.40;1.70;;;15.30;99.90;;;;;;5037536;28;20060;-47
2024/01/24 12:15:55;;;;;;;4.57;1.80;;;15.10;99.90;;;;;;5036789;28;20526;-48
2024/01/24 12:18:22;;;;;;;3.40;1.85;;;14.90;99.90;;;;;;5041775;28;20156;-47
2024/01/24 12:20:53;;;;;;;3.97;2.13;;;14.70;99.90;;;;;;5041603;28;20040;-44
2024/01/24 12:23:24;;;;;;;5.50;1.95;;;14.20;99.90;;;;;;5034671;28;20037;-47
2024/01/24 12:25:53;;;;;;;3.05;1.80;;;14.00;99.90;;;;;;5036263;28;20041;-48
2024/01/24 12:28:20;;;;;;;3.42;1.70;;;14.10;99.90;;;;;;5035106;28;20579;-48
2024/01/24 12:30:50;;;;;;;3.05;1.70;;;14.40;99.90;;;;;;5038858;28;20045;-46
2024/01/24 12:33:19;;;;;;;3.35;2.20;;;14.80;99.90;;;;;;5035041;28;20132;-45
2024/01/24 12:35:46;;;;;;;3.70;1.90;;;14.80;99.90;;;;;;5032289;28;20095;-47
2024/01/24 12:38:15;;;;;;;2.75;1.80;;;14.30;99.90;;;;;;5038148;28;20045;-48
2024/01/24 12:40:50;;;;;;;4.00;1.88;;;14.00;99.90;;;;;;5039374;28;20143;-45
2024/01/24 12:43:21;;;;;;;3.22;1.80;;;14.30;99.90;;;;;;5033790;28;20107;-46
2024/01/24 12:45:49;;;;;;;2.22;1.90;;;14.60;99.90;;;;;;5035376;28;20053;-43
2024/01/24 12:48:18;;;;;;;5.07;2.05;;;14.40;99.90;;;;;;5035166;28;20076;-44
2024/01/24 12:50:48;;;;;;;6.97;1.95;;;14.10;99.90;;;;;;5036441;28;20418;-45
2024/01/24 12:53:16;;;;;;;6.65;2.50;;;13.80;99.90;;;;;;5039690;28;20049;-48
2024/01/24 12:55:44;;;;;;;7.00;2.00;;;13.60;99.90;;;;;;5022206;28;20053;-46